Time;durP1;ratioP1;P1;durP2;ratioP2;P2;SDS_P1;SDS_P2;PMS_P1;PMS_P2;Temp;Humidity;BMP_temperature;BMP_pressure;BME280_temperature;BME280_humidity;BME280_pressure;Samples;Min_cycle;Max_cycle;Signal;HPM_P1;HPM_P2
2023/02/16 00:00:27;;;;;;;;;;;;;;;16.56;38.90;102298.94;5073849;28;1111;-51
2023/02/16 00:02:53;;;;;;;;;;;;;;;18.59;35.05;102293.59;5075518;28;1134;-52
2023/02/16 00:05:22;;;;;;;;;;;;;;;17.13;37.80;102290.16;5075847;28;1137;-51
2023/02/16 00:07:48;;;;;;;;;;;;;;;17.84;36.68;102290.00;5074971;28;1910;-53
2023/02/16 00:10:13;;;;;;;;;;;;;;;17.99;36.00;102286.72;5075401;28;995;-52
2023/02/16 00:15:22;;;;;;;;;;;;;;;16.54;38.79;102277.22;5075107;28;1011;-51
2023/02/16 00:17:48;;;;;;;;;;;;;;;17.40;37.16;102273.16;5074729;28;2621;-46
2023/02/16 00:20:14;;;;;;;;;;;;;;;16.56;38.79;102271.47;5075227;28;1143;-52
2023/02/16 00:22:39;;;;;;;;;;;;;;;18.41;35.53;102271.78;5075283;28;1110;-52
2023/02/16 00:25:05;;;;;;;;;;;;;;;17.28;37.54;102275.94;5074865;28;1170;-52
2023/02/16 00:27:30;;;;;;;;;;;;;;;16.62;38.89;102277.94;5074546;28;1967;-52
2023/02/16 00:29:56;;;;;;;;;;;;;;;16.44;39.20;102279.72;5074689;28;1253;-51
2023/02/16 00:32:21;;;;;;;;;;;;;;;17.19;37.40;102274.63;5075124;28;1103;-52
2023/02/16 00:34:47;;;;;;;;;;;;;;;16.51;38.94;102265.84;5075525;28;1038;-49
2023/02/16 00:37:12;;;;;;;;;;;;;;;18.33;35.73;102277.69;5057174;28;1186;-50
2023/02/16 00:39:38;;;;;;;;;;;;;;;17.07;37.83;102280.97;5075106;28;1074;-51
2023/02/16 00:42:17;;;;;;;;;;;;;;;18.23;35.77;102273.69;5073488;28;1135;-51
2023/02/16 00:44:43;;;;;;;;;;;;;;;18.13;35.66;102267.97;5073744;28;1135;-49
2023/02/16 00:47:14;;;;;;;;;;;;;;;17.10;37.78;102274.16;5078280;28;2588;-52
2023/02/16 00:49:40;;;;;;;;;;;;;;;16.85;38.43;102263.41;5078423;28;890;-52
2023/02/16 00:52:28;;;;;;;;;;;;;;;17.51;36.91;102255.78;5078514;28;1138;-53
2023/02/16 00:54:54;;;;;;;;;;;;;;;16.67;38.78;102267.91;5075263;28;1283;-54
2023/02/16 00:57:20;;;;;;;;;;;;;;;16.46;38.91;102263.00;5078409;28;1146;-54
2023/02/16 00:59:45;;;;;;;;;;;;;;;17.60;37.24;102267.25;5078048;28;1154;-53
2023/02/16 01:02:11;;;;;;;;;;;;;;;16.68;38.70;102260.53;5094048;28;1094;-51
2023/02/16 01:04:36;;;;;;;;;;;;;;;17.99;36.20;102259.19;5078265;28;1034;-55
2023/02/16 01:12:33;;;;;;;;;;;;;;;16.70;38.81;102250.94;5076419;28;1098;-53
2023/02/16 01:14:58;;;;;;;;;;;;;;;17.28;37.62;102251.19;5110576;28;1075;-54
2023/02/16 01:17:24;;;;;;;;;;;;;;;16.59;38.94;102240.78;5077960;28;1780;-51
2023/02/16 01:19:52;;;;;;;;;;;;;;;17.69;36.88;102246.50;5077621;28;1019;-53
2023/02/16 01:22:17;;;;;;;;;;;;;;;16.81;38.29;102254.78;5077702;28;1115;-54
2023/02/16 01:24:42;;;;;;;;;;;;;;;17.55;37.15;102239.63;5077774;28;1134;-53
2023/02/16 01:27:11;;;;;;;;;;;;;;;17.96;36.07;102243.19;5076687;28;1976;-53
2023/02/16 01:29:36;;;;;;;;;;;;;;;16.83;38.40;102251.78;5076282;28;1438;-54
2023/02/16 01:32:02;;;;;;;;;;;;;;;18.13;35.93;102251.47;5077825;28;1114;-54
2023/02/16 01:34:27;;;;;;;;;;;;;;;17.13;37.56;102240.69;5076493;28;1007;-54
2023/02/16 01:36:56;;;;;;;;;;;;;;;16.55;38.85;102240.44;5077492;28;1254;-54
2023/02/16 01:39:21;;;;;;;;;;;;;;;17.82;36.17;102241.78;5075812;28;2050;-54
2023/02/16 01:41:50;;;;;;;;;;;;;;;16.77;38.30;102243.44;5078023;28;1194;-54
2023/02/16 01:44:17;;;;;;;;;;;;;;;17.70;36.89;102242.69;5077245;28;1035;-54
2023/02/16 01:46:42;;;;;;;;;;;;;;;17.27;37.45;102246.75;5063900;28;2219;-55
2023/02/16 01:49:11;;;;;;;;;;;;;;;16.48;38.97;102244.38;5075807;28;1987;-54
2023/02/16 01:51:40;;;;;;;;;;;;;;;17.88;36.47;102246.31;5075980;28;1083;-52
2023/02/16 01:54:09;;;;;;;;;;;;;;;16.69;38.50;102254.78;5092974;28;1110;-54
2023/02/16 01:56:35;;;;;;;;;;;;;;;17.21;37.70;102256.00;5078888;28;1085;-53
2023/02/16 01:59:03;;;;;;;;;;;;;;;17.19;37.42;102247.13;5075944;28;1139;-51
2023/02/16 02:01:36;;;;;;;;;;;;;;;16.37;39.38;102248.78;5076830;28;944;-52
2023/02/16 02:06:52;;;;;;;;;;;;;;;16.73;38.21;102253.25;5077249;28;987;-53
2023/02/16 02:09:23;;;;;;;;;;;;;;;16.55;39.10;102259.69;5075735;28;1906;-54
2023/02/16 02:11:49;;;;;;;;;;;;;;;17.50;36.77;102250.53;5092332;28;1201;-54
2023/02/16 02:14:17;;;;;;;;;;;;;;;16.55;38.77;102258.81;5076266;28;1051;-54
2023/02/16 02:16:56;;;;;;;;;;;;;;;18.05;35.80;102247.22;5075639;28;1761;-54
2023/02/16 02:19:21;;;;;;;;;;;;;;;16.86;38.00;102246.66;5063666;28;1163;-54
2023/02/16 02:24:47;;;;;;;;;;;;;;;17.50;36.67;102245.88;5075437;28;1123;-54
2023/02/16 02:27:21;;;;;;;;;;;;;;;16.67;38.39;102245.13;5076401;28;1902;-54
2023/02/16 02:29:51;;;;;;;;;;;;;;;17.36;37.47;102253.56;5075560;28;1195;-52
2023/02/16 02:32:20;;;;;;;;;;;;;;;16.89;38.14;102250.88;5062316;28;1225;-54
2023/02/16 02:35:05;;;;;;;;;;;;;;;17.68;36.82;102242.06;5075210;28;1222;-54
2023/02/16 02:37:35;;;;;;;;;;;;;;;18.15;35.57;102238.31;5076309;28;1180;-54
2023/02/16 02:40:10;;;;;;;;;;;;;;;16.92;37.97;102239.41;5058740;28;1217;-54
2023/02/16 02:42:39;;;;;;;;;;;;;;;17.39;37.45;102239.31;5091999;28;1219;-54
2023/02/16 02:45:16;;;;;;;;;;;;;;;17.19;37.47;102244.38;5074952;28;1082;-54
2023/02/16 02:47:43;;;;;;;;;;;;;;;16.48;38.89;102244.38;5108295;28;2624;-53
2023/02/16 02:50:22;;;;;;;;;;;;;;;17.71;36.41;102246.25;5075882;28;887;-53
2023/02/16 02:52:49;;;;;;;;;;;;;;;16.71;38.42;102238.06;5075041;28;1184;-53
2023/02/16 03:00:43;;;;;;;;;;;;;;;16.36;39.16;102230.63;5074711;28;1094;-57
2023/02/16 03:03:12;;;;;;;;;;;;;;;16.15;39.37;102230.13;5089285;28;1373;-55
2023/02/16 03:05:37;;;;;;;;;;;;;;;18.05;35.91;102230.69;5076234;28;1043;-54
2023/02/16 03:08:12;;;;;;;;;;;;;;;16.56;38.69;102239.38;5057769;28;1976;-55
2023/02/16 03:13:24;;;;;;;;;;;;;;;17.31;37.11;102236.97;5074447;28;1112;-57
2023/02/16 03:15:49;;;;;;;;;;;;;;;16.55;38.57;102237.72;5074920;28;2485;-57
2023/02/16 03:29:18;;;;;;;;;;;;;;;17.73;36.49;102239.44;5074805;28;1905;-55
2023/02/16 03:31:43;;;;;;;;;;;;;;;18.28;35.07;102246.22;5075635;28;1185;-55
2023/02/16 03:34:09;;;;;;;;;;;;;;;17.00;37.84;102241.78;5074349;28;1106;-55
2023/02/16 03:36:35;;;;;;;;;;;;;;;16.50;38.81;102243.06;5075708;28;1050;-54
2023/02/16 03:39:00;;;;;;;;;;;;;;;16.67;38.66;102248.69;5075603;28;917;-54
2023/02/16 03:41:26;;;;;;;;;;;;;;;17.30;37.07;102251.78;5075470;28;1067;-53
2023/02/16 03:43:51;;;;;;;;;;;;;;;17.06;37.92;102250.97;5073928;28;1374;-54
2023/02/16 03:46:17;;;;;;;;;;;;;;;18.82;34.43;102250.41;5075238;28;2269;-53
2023/02/16 03:48:42;;;;;;;;;;;;;;;17.51;36.80;102252.19;5075213;28;1965;-55
2023/02/16 03:51:08;;;;;;;;;;;;;;;16.82;38.29;102250.13;5074904;28;981;-52
2023/02/16 03:53:33;;;;;;;;;;;;;;;16.48;38.62;102260.84;5075297;28;1227;-51
2023/02/16 03:55:58;;;;;;;;;;;;;;;17.49;36.61;102248.84;5074993;28;1254;-53
2023/02/16 03:58:24;;;;;;;;;;;;;;;16.59;38.60;102249.03;5075608;28;1182;-53
2023/02/16 04:00:49;;;;;;;;;;;;;;;18.00;35.92;102252.63;5075693;28;1083;-53
2023/02/16 04:03:15;;;;;;;;;;;;;;;17.24;37.25;102261.00;5074721;28;944;-53
2023/02/16 04:05:40;;;;;;;;;;;;;;;16.67;38.21;102262.41;5075527;28;1154;-53
2023/02/16 04:08:06;;;;;;;;;;;;;;;17.79;36.19;102251.38;5075351;28;1973;-55
2023/02/16 04:10:31;;;;;;;;;;;;;;;16.74;38.20;102251.31;5075656;28;1046;-54
2023/02/16 04:12:57;;;;;;;;;;;;;;;17.40;37.13;102260.25;5075115;28;1164;-54
2023/02/16 04:15:23;;;;;;;;;;;;;;;17.75;36.17;102252.94;5074846;28;871;-54
2023/02/16 04:17:49;;;;;;;;;;;;;;;16.78;37.99;102258.00;5074935;28;2602;-53
2023/02/16 04:20:18;;;;;;;;;;;;;;;16.39;38.87;102263.09;5076479;28;1154;-54
2023/02/16 04:22:43;;;;;;;;;;;;;;;17.26;37.04;102258.84;5077828;28;1039;-50
2023/02/16 04:25:09;;;;;;;;;;;;;;;16.36;39.15;102258.91;5079227;28;1147;-54
2023/02/16 04:27:35;;;;;;;;;;;;;;;16.21;39.07;102264.03;5078885;28;1898;-53
2023/02/16 04:30:00;;;;;;;;;;;;;;;17.31;37.25;102258.13;5079021;28;1093;-51
2023/02/16 04:32:26;;;;;;;;;;;;;;;16.43;38.86;102254.16;5078805;28;1087;-50
2023/02/16 04:34:51;;;;;;;;;;;;;;;18.40;35.14;102265.44;5078717;28;999;-54
2023/02/16 04:37:17;;;;;;;;;;;;;;;17.77;35.92;102267.31;5078205;28;1039;-54
2023/02/16 04:39:42;;;;;;;;;;;;;;;16.73;38.32;102264.22;5078770;28;1087;-51
2023/02/16 04:42:07;;;;;;;;;;;;;;;16.42;38.65;102268.13;5078821;28;1106;-54
2023/02/16 04:44:33;;;;;;;;;;;;;;;16.17;39.13;102269.16;5078641;28;1050;-53
2023/02/16 04:46:58;;;;;;;;;;;;;;;16.00;39.29;102277.19;5078912;28;2557;-54
2023/02/16 04:49:24;;;;;;;;;;;;;;;16.79;37.98;102278.91;5078303;28;1988;-54
2023/02/16 04:51:49;;;;;;;;;;;;;;;16.18;39.16;102268.06;5077422;28;1055;-54
2023/02/16 04:54:14;;;;;;;;;;;;;;;15.95;39.32;102277.06;5078214;28;1145;-52
2023/02/16 04:56:42;;;;;;;;;;;;;;;16.11;38.93;102288.47;5076344;28;947;-53
2023/02/16 04:59:07;;;;;;;;;;;;;;;16.74;37.80;102279.63;5078634;28;991;-54
2023/02/16 05:01:33;;;;;;;;;;;;;;;16.13;38.91;102286.31;5078313;28;1058;-48
2023/02/16 05:03:58;;;;;;;;;;;;;;;18.06;35.55;102284.69;5078237;28;995;-53
2023/02/16 05:06:24;;;;;;;;;;;;;;;16.82;37.51;102288.59;5077784;28;1107;-49
2023/02/16 05:08:50;;;;;;;;;;;;;;;16.25;38.95;102277.03;5078018;28;1914;-47
2023/02/16 05:16:42;;;;;;;;;;;;;;;16.03;38.96;102298.69;5078488;28;1976;-51
2023/02/16 05:19:08;;;;;;;;;;;;;;;17.72;36.14;102298.28;5078408;28;1094;-52
2023/02/16 05:21:34;;;;;;;;;;;;;;;16.48;38.25;102304.78;5077897;28;1016;-48
2023/02/16 05:24:01;;;;;;;;;;;;;;;16.11;39.02;102310.41;5077823;28;991;-51
2023/02/16 05:26:26;;;;;;;;;;;;;;;17.14;36.78;102308.34;5078136;28;1054;-46
2023/02/16 05:28:52;;;;;;;;;;;;;;;16.18;38.84;102306.50;5078284;28;1913;-52
2023/02/16 05:31:17;;;;;;;;;;;;;;;17.79;35.93;102309.16;5077681;28;1138;-53
2023/02/16 05:33:43;;;;;;;;;;;;;;;16.83;37.41;102313.09;5078002;28;1130;-49
2023/02/16 05:36:08;;;;;;;;;;;;;;;16.23;38.73;102314.03;5077841;28;1035;-53
2023/02/16 05:38:34;;;;;;;;;;;;;;;17.39;36.34;102327.31;5077526;28;1023;-50
2023/02/16 05:40:59;;;;;;;;;;;;;;;16.35;38.40;102323.13;5077699;28;995;-51
2023/02/16 05:43:24;;;;;;;;;;;;;;;17.33;36.78;102310.94;5077260;28;1228;-52
2023/02/16 05:45:50;;;;;;;;;;;;;;;17.18;36.85;102315.03;5077897;28;1801;-55
2023/02/16 05:48:15;;;;;;;;;;;;;;;17.24;37.07;102313.22;5076738;28;1981;-52
2023/02/16 05:50:41;;;;;;;;;;;;;;;18.85;34.07;102309.69;5077202;28;1206;-52
2023/02/16 05:53:06;;;;;;;;;;;;;;;17.35;36.98;102314.28;5077700;28;1050;-48
2023/02/16 05:55:32;;;;;;;;;;;;;;;16.77;38.09;102314.00;5077584;28;1080;-53
2023/02/16 05:57:57;;;;;;;;;;;;;;;17.42;36.64;102304.00;5077582;28;1129;-48
2023/02/16 06:00:22;;;;;;;;;;;;;;;16.63;38.24;102307.09;5077161;28;1126;-51
2023/02/16 06:02:48;;;;;;;;;;;;;;;18.40;34.89;102304.00;5076936;28;1062;-48
2023/02/16 06:05:13;;;;;;;;;;;;;;;17.23;37.15;102306.06;5077192;28;1189;-50
2023/02/16 06:07:39;;;;;;;;;;;;;;;16.54;38.50;102314.84;5076871;28;1988;-50
2023/02/16 06:10:05;;;;;;;;;;;;;;;17.68;36.08;102308.09;5077368;28;1083;-49
2023/02/16 06:12:31;;;;;;;;;;;;;;;16.61;38.24;102310.06;5077376;28;1212;-52
2023/02/16 06:14:57;;;;;;;;;;;;;;;16.29;39.00;102315.84;5075957;28;1066;-50
2023/02/16 06:17:22;;;;;;;;;;;;;;;17.48;36.67;102321.44;5082874;28;2069;-52
2023/02/16 06:19:47;;;;;;;;;;;;;;;16.88;37.60;102326.09;5076942;28;1169;-50
2023/02/16 06:22:13;;;;;;;;;;;;;;;16.42;38.22;102329.38;5084323;28;907;-48
2023/02/16 06:24:39;;;;;;;;;;;;;;;16.10;38.86;102328.75;5076654;28;1452;-51
2023/02/16 06:27:04;;;;;;;;;;;;;;;15.96;39.32;102330.03;5076348;28;1115;-48
2023/02/16 06:29:30;;;;;;;;;;;;;;;15.79;39.52;102330.66;5074601;28;1961;-51
2023/02/16 06:31:55;;;;;;;;;;;;;;;15.62;40.05;102324.91;5063696;28;1104;-49
2023/02/16 06:34:21;;;;;;;;;;;;;;;15.50;40.15;102324.00;5073097;28;1243;-49
2023/02/16 06:36:46;;;;;;;;;;;;;;;15.34;40.39;102323.53;5071999;28;1164;-48
2023/02/16 06:39:11;;;;;;;;;;;;;;;15.19;40.72;102323.06;5073845;28;1155;-48
2023/02/16 06:41:39;;;;;;;;;;;;;;;16.47;38.14;102320.44;5069774;28;1309;-46
2023/02/16 06:44:14;;;;;;;;;;;;;;;16.73;37.69;102324.66;5071002;28;1214;-50
2023/02/16 06:46:40;;;;;;;;;;;;;;;15.88;39.45;102322.97;5062512;28;1804;-50
2023/02/16 06:49:05;;;;;;;;;;;;;;;15.52;40.15;102327.38;5054918;28;1898;-49
2023/02/16 06:51:30;;;;;;;;;;;;;;;15.30;40.64;102322.31;5074479;28;1036;-49
2023/02/16 06:53:56;;;;;;;;;;;;;;;16.04;39.32;102327.78;5074502;28;1198;-51
2023/02/16 06:56:21;;;;;;;;;;;;;;;17.24;36.31;102318.72;5075372;28;1194;-51
2023/02/16 06:58:47;;;;;;;;;;;;;;;16.08;38.82;102320.78;5075677;28;1254;-48
2023/02/16 07:01:12;;;;;;;;;;;;;;;15.69;39.70;102314.72;5074354;28;1213;-48
2023/02/16 07:03:38;;;;;;;;;;;;;;;15.38;40.26;102319.28;5075925;28;1266;-52
2023/02/16 07:06:04;;;;;;;;;;;;;;;15.80;39.63;102323.28;5081513;28;1086;-50
2023/02/16 07:08:29;;;;;;;;;;;;;;;17.25;36.44;102323.13;5062753;28;1902;-44
2023/02/16 07:10:55;;;;;;;;;;;;;;;16.43;38.07;102314.56;5076374;28;972;-48
2023/02/16 07:13:20;;;;;;;;;;;;;;;15.80;39.44;102320.53;5076407;28;1122;-48
2023/02/16 07:15:46;;;;;;;;;;;;;;;15.47;40.10;102327.22;5075725;28;1908;-49
2023/02/16 07:18:11;;;;;;;;;;;;;;;15.37;40.54;102317.59;5075791;28;1087;-46
2023/02/16 07:20:36;;;;;;;;;;;;;;;16.54;38.00;102317.59;5075463;28;1091;-51
2023/02/16 07:23:02;;;;;;;;;;;;;;;17.17;36.54;102304.28;5076056;28;1027;-46
2023/02/16 07:25:27;;;;;;;;;;;;;;;16.11;38.89;102310.41;5076294;28;1098;-50
2023/02/16 07:27:55;;;;;;;;;;;;;;;15.71;39.73;102300.75;5074616;28;1969;-51
2023/02/16 07:30:21;;;;;;;;;;;;;;;15.39;40.16;102304.53;5083160;28;1186;-48
2023/02/16 07:32:46;;;;;;;;;;;;;;;16.24;38.79;102296.47;5071964;28;1147;-46
2023/02/16 07:35:12;;;;;;;;;;;;;;;17.17;36.67;102309.78;5075593;28;1186;-46
2023/02/16 07:37:37;;;;;;;;;;;;;;;16.07;38.79;102294.41;5075795;28;1087;-45
2023/02/16 07:40:03;;;;;;;;;;;;;;;15.66;39.76;102295.97;5075615;28;1038;-44
2023/02/16 07:42:30;;;;;;;;;;;;;;;16.24;38.71;102293.72;5075582;28;1111;-46
2023/02/16 07:44:56;;;;;;;;;;;;;;;17.36;36.54;102293.97;5074380;28;1149;-45
2023/02/16 07:47:21;;;;;;;;;;;;;;;16.31;38.51;102283.50;5070321;28;2218;-45
2023/02/16 07:49:46;;;;;;;;;;;;;;;15.78;39.44;102285.09;5075337;28;1023;-44
2023/02/16 07:52:12;;;;;;;;;;;;;;;15.53;40.00;102279.72;5075196;28;902;-49
2023/02/16 07:54:37;;;;;;;;;;;;;;;15.34;40.54;102273.38;5062334;28;1110;-49
2023/02/16 07:57:03;;;;;;;;;;;;;;;16.64;37.95;102278.56;5068763;28;1205;-45
2023/02/16 07:59:28;;;;;;;;;;;;;;;17.18;36.75;102270.19;5076862;28;1130;-44
2023/02/16 08:01:55;;;;;;;;;;;;;;;16.10;38.97;102273.06;5068295;28;1201;-45
2023/02/16 08:04:21;;;;;;;;;;;;;;;15.71;39.62;102265.97;5058715;28;1254;-51
2023/02/16 08:06:47;;;;;;;;;;;;;;;15.45;40.28;102271.78;5073683;28;960;-49
2023/02/16 08:09:13;;;;;;;;;;;;;;;15.61;39.98;102273.88;5071418;28;1917;-51
2023/02/16 08:11:38;;;;;;;;;;;;;;;17.20;36.75;102268.88;5073400;28;1110;-49
2023/02/16 08:14:04;;;;;;;;;;;;;;;16.53;38.03;102263.72;5064971;28;1206;-49
2023/02/16 08:16:29;;;;;;;;;;;;;;;15.93;39.29;102264.66;5065213;28;1836;-48
2023/02/16 08:18:55;;;;;;;;;;;;;;;15.65;39.72;102266.03;5066403;28;1102;-51
2023/02/16 08:21:22;;;;;;;;;;;;;;;15.38;40.45;102269.94;5071887;28;1005;-50
2023/02/16 08:24:00;;;;;;;;;;;;;;;16.06;39.16;102264.44;5072442;28;1040;-47
2023/02/16 08:26:27;;;;;;;;;;;;;;;17.45;36.17;102270.50;5078887;28;1054;-48
2023/02/16 08:28:55;;;;;;;;;;;;;;;16.47;38.03;102270.19;5065517;28;1914;-47
2023/02/16 08:31:24;;;;;;;;;;;;;;;15.84;39.50;102262.22;5065999;28;1115;-43
2023/02/16 08:33:50;;;;;;;;;;;;;;;15.57;40.13;102264.44;5052654;28;1017;-46
2023/02/16 08:36:19;;;;;;;;;;;;;;;15.91;39.33;102264.88;5065702;28;1349;-47
2023/02/16 08:38:45;;;;;;;;;;;;;;;17.37;36.36;102257.13;5071386;28;1182;-46
2023/02/16 08:41:10;;;;;;;;;;;;;;;16.52;38.08;102262.91;5060089;28;977;-49
2023/02/16 08:43:36;;;;;;;;;;;;;;;15.98;39.30;102262.06;5063877;28;1358;-48
2023/02/16 08:46:01;;;;;;;;;;;;;;;15.61;40.11;102262.09;5068475;28;1785;-49
2023/02/16 08:48:27;;;;;;;;;;;;;;;15.45;40.36;102263.56;5057447;28;1977;-52
2023/02/16 08:50:53;;;;;;;;;;;;;;;16.60;38.31;102267.19;5040616;28;1000;-49
2023/02/16 08:53:24;;;;;;;;;;;;;;;17.00;37.10;102252.78;5061865;28;958;-54
2023/02/16 08:55:53;;;;;;;;;;;;;;;16.02;39.34;102257.75;5064145;28;1230;-47
2023/02/16 08:58:18;;;;;;;;;;;;;;;15.69;39.79;102262.59;5055805;28;1261;-47
2023/02/16 09:00:43;;;;;;;;;;;;;;;15.47;40.43;102255.94;5065686;28;1332;-44
2023/02/16 09:03:09;;;;;;;;;;;;;;;15.31;40.57;102258.22;5058124;28;1007;-50
2023/02/16 09:05:34;;;;;;;;;;;;;;;16.84;37.67;102258.97;5058267;28;941;-46
2023/02/16 09:08:00;;;;;;;;;;;;;;;16.60;38.04;102256.22;5058332;28;1905;-47
2023/02/16 09:10:25;;;;;;;;;;;;;;;15.90;39.49;102249.50;5068393;28;1249;-44
2023/02/16 09:12:51;;;;;;;;;;;;;;;15.58;40.00;102252.41;5068829;28;1175;-48
2023/02/16 09:15:16;;;;;;;;;;;;;;;15.64;40.08;102248.78;5069123;28;1253;-48
2023/02/16 09:17:42;;;;;;;;;;;;;;;17.17;36.84;102243.81;5063842;28;1792;-47
2023/02/16 09:20:07;;;;;;;;;;;;;;;16.25;38.65;102246.00;5071130;28;1218;-49
2023/02/16 09:22:33;;;;;;;;;;;;;;;15.77;39.73;102238.66;5058431;28;1257;-45
2023/02/16 09:24:58;;;;;;;;;;;;;;;15.53;40.21;102244.06;5057855;28;1003;-47
2023/02/16 09:27:24;;;;;;;;;;;;;;;16.05;39.11;102241.66;5057929;28;1984;-49
2023/02/16 09:29:50;;;;;;;;;;;;;;;17.40;36.34;102240.16;5052726;28;1052;-47
2023/02/16 09:32:16;;;;;;;;;;;;;;;16.39;38.27;102241.97;5069983;28;1095;-47
2023/02/16 09:34:43;;;;;;;;;;;;;;;15.86;39.42;102232.66;5057081;28;995;-49
2023/02/16 09:37:09;;;;;;;;;;;;;;;15.59;40.07;102243.13;5057258;28;1070;-45
2023/02/16 09:39:34;;;;;;;;;;;;;;;15.28;40.34;102212.09;5057068;28;1433;-48
2023/02/16 09:42:09;;;;;;;;;;;;;;;16.81;37.67;102238.28;5057371;28;1039;-48
2023/02/16 09:44:41;;;;;;;;;;;;;;;16.86;37.26;102229.34;5050621;28;1122;-47
2023/02/16 09:47:18;;;;;;;;;;;;;;;15.98;39.23;102220.91;5056557;28;2366;-47
2023/02/16 09:49:44;;;;;;;;;;;;;;;15.63;39.83;102218.84;5040063;28;1043;-47
2023/02/16 09:52:17;;;;;;;;;;;;;;;15.43;40.28;102219.09;5032755;28;1096;-45
2023/02/16 09:54:46;;;;;;;;;;;;;;;16.12;39.04;102207.78;5057188;28;1059;-48
2023/02/16 09:57:40;;;;;;;;;;;;;;;17.27;36.75;102200.03;5057527;28;1079;-44
2023/02/16 10:00:13;;;;;;;;;;;;;;;16.06;39.12;102198.59;5002376;28;1156;-46
2023/02/16 10:02:58;;;;;;;;;;;;;;;15.66;40.00;102200.00;5038542;28;1044;-50
2023/02/16 10:05:31;;;;;;;;;;;;;;;15.40;40.28;102190.22;5056591;28;891;-50
2023/02/16 10:08:10;;;;;;;;;;;;;;;15.30;40.58;102200.91;5038593;28;1910;-49
2023/02/16 10:10:49;;;;;;;;;;;;;;;17.01;37.05;102194.00;5038967;28;1293;-50
2023/02/16 10:13:33;;;;;;;;;;;;;;;16.39;38.18;102187.06;5044444;28;1004;-50
2023/02/16 10:16:00;;;;;;;;;;;;;;;15.77;39.42;102183.81;5054313;28;1885;-50
2023/02/16 10:18:36;;;;;;;;;;;;;;;15.52;40.35;102195.78;5055964;28;1092;-55
2023/02/16 10:21:03;;;;;;;;;;;;;;;15.35;40.35;102179.97;5039028;28;1040;-56
2023/02/16 10:23:46;;;;;;;;;;;;;;;16.64;37.87;102174.19;5056941;28;1167;-56
2023/02/16 10:26:12;;;;;;;;;;;;;;;17.03;37.13;102177.28;5039452;28;1124;-55
2023/02/16 10:28:44;;;;;;;;;;;;;;;16.07;38.95;102176.44;5058151;28;1938;-55
2023/02/16 10:31:15;;;;;;;;;;;;;;;15.65;40.15;102173.63;5035966;28;1156;-56
2023/02/16 10:33:45;;;;;;;;;;;;;;;15.56;40.33;102172.31;5037904;28;1059;-56
2023/02/16 10:36:29;;;;;;;;;;;;;;;15.42;40.58;102173.53;5056616;28;1039;-56
2023/02/16 10:39:08;;;;;;;;;;;;;;;16.07;39.32;102168.19;5056714;28;1213;-56
2023/02/16 10:41:35;;;;;;;;;;;;;;;17.15;36.90;102161.56;5038307;28;1497;-56
2023/02/16 10:44:12;;;;;;;;;;;;;;;16.10;38.86;102168.78;5072096;28;1183;-55
2023/02/16 10:46:39;;;;;;;;;;;;;;;16.33;38.67;102165.25;5073546;28;1903;-56
2023/02/16 10:49:07;;;;;;;;;;;;;;;17.12;36.84;102155.72;5091588;28;1905;-56
2023/02/16 10:51:35;;;;;;;;;;;;;;;16.17;38.81;102155.78;5074962;28;1096;-56
2023/02/16 10:54:05;;;;;;;;;;;;;;;15.78;39.65;102145.22;5074845;28;1051;-56
2023/02/16 10:56:42;;;;;;;;;;;;;;;15.55;40.31;102146.78;5076455;28;1074;-56
2023/02/16 10:59:15;;;;;;;;;;;;;;;15.60;40.10;102150.72;5075886;28;1154;-56
2023/02/16 11:01:59;;;;;;;;;;;;;;;17.22;36.86;102139.44;5076040;28;1106;-56
2023/02/16 11:04:43;;;;;;;;;;;;;;;16.15;39.10;102147.78;5072943;28;988;-50
2023/02/16 11:07:10;;;;;;;;;;;;;;;15.71;39.82;102134.34;5064061;28;1265;-56
2023/02/16 11:09:36;;;;;;;;;;;;;;;15.48;40.28;102134.25;5083857;28;2034;-56
2023/02/16 11:12:02;;;;;;;;;;;;;;;15.33;40.63;102130.03;5075191;28;1027;-56
2023/02/16 11:14:30;;;;;;;;;;;;;;;16.50;38.38;102129.66;5095010;28;1308;-56
2023/02/16 11:17:12;;;;;;;;;;;;;;;16.85;37.36;102123.28;5074892;28;2063;-56
2023/02/16 11:19:38;;;;;;;;;;;;;;;15.95;39.35;102120.69;5074846;28;1052;-55
2023/02/16 11:22:04;;;;;;;;;;;;;;;15.62;40.10;102113.78;5074628;28;1090;-56
2023/02/16 11:24:33;;;;;;;;;;;;;;;15.62;40.20;102105.56;5075867;28;1109;-54
2023/02/16 11:27:00;;;;;;;;;;;;;;;17.21;36.75;102115.81;5061236;28;1055;-56
2023/02/16 11:29:25;;;;;;;;;;;;;;;16.50;38.18;102110.44;5070028;28;1906;-56
2023/02/16 11:31:50;;;;;;;;;;;;;;;15.90;39.28;102106.84;5056580;28;1039;-56
2023/02/16 11:34:28;;;;;;;;;;;;;;;15.64;40.07;102103.44;5102463;28;1111;-56
2023/02/16 11:37:04;;;;;;;;;;;;;;;15.46;40.33;102101.59;5075675;28;1095;-55
2023/02/16 11:39:32;;;;;;;;;;;;;;;16.94;37.43;102102.59;5064787;28;1122;-56
2023/02/16 11:41:58;;;;;;;;;;;;;;;16.58;38.02;102102.66;5100972;28;875;-56
2023/02/16 11:44:24;;;;;;;;;;;;;;;15.88;39.18;102098.84;5075462;28;1176;-56
2023/02/16 11:46:49;;;;;;;;;;;;;;;15.60;40.04;102094.00;5076048;28;2113;-56
2023/02/16 11:49:34;;;;;;;;;;;;;;;15.38;40.39;102089.03;5075470;28;1905;-56
2023/02/16 11:51:59;;;;;;;;;;;;;;;16.96;37.44;102086.72;5075543;28;1019;-51
2023/02/16 11:54:26;;;;;;;;;;;;;;;16.72;37.54;102086.75;5073771;28;1242;-52
2023/02/16 11:57:04;;;;;;;;;;;;;;;15.98;39.17;102087.28;5074219;28;995;-51
2023/02/16 11:59:37;;;;;;;;;;;;;;;15.64;40.10;102083.38;5074699;28;1114;-52
2023/02/16 12:02:09;;;;;;;;;;;;;;;15.46;40.55;102082.41;5073733;28;988;-50
2023/02/16 12:04:45;;;;;;;;;;;;;;;15.47;40.38;102077.75;5058105;28;1047;-51
2023/02/16 12:07:14;;;;;;;;;;;;;;;17.10;36.65;102093.59;5057395;28;1017;-48
2023/02/16 12:09:39;;;;;;;;;;;;;;;16.96;36.97;102081.22;5071223;28;1914;-50
2023/02/16 12:12:08;;;;;;;;;;;;;;;16.16;38.36;102078.13;5075239;28;1347;-53
2023/02/16 12:14:37;;;;;;;;;;;;;;;16.03;38.71;102062.75;5092381;28;1053;-53
2023/02/16 12:17:02;;;;;;;;;;;;;;;15.71;39.08;102064.91;5071609;28;1882;-52
2023/02/16 12:19:41;;;;;;;;;;;;;;;15.45;39.70;102060.72;5074666;28;1075;-53
2023/02/16 12:22:08;;;;;;;;;;;;;;;16.30;38.34;102067.72;5090608;28;1205;-53
2023/02/16 12:24:46;;;;;;;;;;;;;;;17.25;36.43;102072.97;5067160;28;1035;-51
2023/02/16 12:27:11;;;;;;;;;;;;;;;16.11;38.59;102077.16;5075262;28;1082;-49
2023/02/16 12:29:56;;;;;;;;;;;;;;;15.74;39.20;102061.72;5074355;28;1991;-53
2023/02/16 12:32:24;;;;;;;;;;;;;;;15.54;39.76;102075.75;5073061;28;1126;-53
2023/02/16 12:35:13;;;;;;;;;;;;;;;15.54;40.13;102075.75;5074939;28;1174;-55
2023/02/16 12:37:43;;;;;;;;;;;;;;;17.34;36.61;102066.00;5057310;28;1420;-53
2023/02/16 12:40:09;;;;;;;;;;;;;;;16.55;37.74;102056.47;5098640;28;1178;-51
2023/02/16 12:42:37;;;;;;;;;;;;;;;16.02;39.24;102068.44;5077837;28;1237;-50
2023/02/16 12:45:05;;;;;;;;;;;;;;;15.66;39.80;102073.88;5061807;28;1066;-46
2023/02/16 12:47:33;;;;;;;;;;;;;;;15.46;40.20;102073.31;5063306;28;1964;-49
2023/02/16 12:49:59;;;;;;;;;;;;;;;16.62;38.08;102074.72;5056971;28;1300;-48
2023/02/16 12:52:36;;;;;;;;;;;;;;;17.00;37.18;102060.44;5073910;28;1161;-53
2023/02/16 12:55:16;;;;;;;;;;;;;;;16.01;39.12;102056.63;5074091;28;1304;-48
2023/02/16 12:57:45;;;;;;;;;;;;;;;15.67;39.87;102064.56;5056744;28;1168;-48
2023/02/16 13:00:17;;;;;;;;;;;;;;;16.46;38.71;102049.69;5056446;28;1250;-55
2023/02/16 13:02:46;;;;;;;;;;;;;;;17.01;37.31;102055.75;5063804;28;1198;-48
2023/02/16 13:05:24;;;;;;;;;;;;;;;16.11;39.00;102063.44;5046342;28;1376;-48
2023/02/16 13:08:01;;;;;;;;;;;;;;;15.79;39.78;102066.50;5047067;28;1981;-46
2023/02/16 13:10:32;;;;;;;;;;;;;;;15.59;40.15;102055.88;5067326;28;1245;-52
2023/02/16 13:13:02;;;;;;;;;;;;;;;15.38;40.90;102050.66;5040527;28;1273;-51
2023/02/16 13:15:38;;;;;;;;;;;;;;;17.03;37.35;102043.44;5040519;28;1274;-51
2023/02/16 13:18:15;;;;;;;;;;;;;;;16.72;37.84;102047.47;5090975;28;1240;-47
2023/02/16 13:20:43;;;;;;;;;;;;;;;16.02;39.43;102044.59;5078611;28;1102;-52
2023/02/16 13:23:15;;;;;;;;;;;;;;;15.70;40.14;102052.31;5055506;28;1019;-52
2023/02/16 13:25:43;;;;;;;;;;;;;;;15.52;40.26;102034.03;5058976;28;1039;-54
2023/02/16 13:28:30;;;;;;;;;;;;;;;15.70;40.07;102036.66;5065837;28;2030;-53
2023/02/16 13:31:04;;;;;;;;;;;;;;;17.35;36.78;102033.81;5087558;28;865;-54